Time;durP1;ratioP1;P1;durP2;ratioP2;P2;SDS_P1;SDS_P2;PMS_P1;PMS_P2;Temp;Humidity;BMP_temperature;BMP_pressure;BME280_temperature;BME280_humidity;BME280_pressure;Samples;Min_cycle;Max_cycle;Signal;HPM_P1;HPM_P2
2022/06/23 00:00:31;;;;;;;27.27;18.88;;;19.80;99.90;;;;;;5051388;28;20225;-58
2022/06/23 00:02:58;;;;;;;27.13;19.25;;;19.70;99.90;;;;;;5052090;28;20546;-59
2022/06/23 00:05:27;;;;;;;26.23;18.25;;;19.70;99.90;;;;;;5051991;28;20197;-58
2022/06/23 00:07:58;;;;;;;27.67;18.63;;;19.70;99.90;;;;;;5051785;28;20577;-58
2022/06/23 00:10:27;;;;;;;27.75;18.48;;;19.60;99.90;;;;;;5051421;28;20256;-58
2022/06/23 00:12:54;;;;;;;26.83;18.60;;;19.60;99.90;;;;;;5051376;28;20205;-58
2022/06/23 00:15:25;;;;;;;29.15;19.23;;;19.60;99.90;;;;;;5051198;28;20201;-58
2022/06/23 00:18:02;;;;;;;24.63;17.95;;;19.60;99.90;;;;;;5051314;28;20186;-59
2022/06/23 00:20:31;;;;;;;29.63;19.20;;;19.60;99.90;;;;;;5050981;28;20233;-58
2022/06/23 00:23:30;;;;;;;30.40;18.73;;;19.60;99.90;;;;;;5051355;28;20185;-58
2022/06/23 00:26:12;;;;;;;26.88;18.70;;;19.60;99.90;;;;;;5050664;28;20327;-58
2022/06/23 00:28:59;;;;;;;29.95;19.25;;;19.60;99.90;;;;;;5051354;28;20186;-58
2022/06/23 00:31:32;;;;;;;28.58;18.90;;;19.50;99.90;;;;;;5053014;28;20538;-58
2022/06/23 00:34:01;;;;;;;28.35;19.88;;;19.50;99.90;;;;;;5039403;28;20177;-58
2022/06/23 00:36:45;;;;;;;30.05;19.27;;;19.40;99.90;;;;;;5054693;28;20222;-58
2022/06/23 00:39:36;;;;;;;31.23;18.52;;;19.40;99.90;;;;;;5054731;28;20170;-58
2022/06/23 00:42:17;;;;;;;27.15;17.85;;;19.30;99.90;;;;;;5054912;28;20182;-58
2022/06/23 00:45:10;;;;;;;29.58;18.05;;;19.30;99.90;;;;;;5054739;28;20636;-58
2022/06/23 00:47:43;;;;;;;26.10;17.63;;;19.30;99.90;;;;;;5054664;28;20243;-58
2022/06/23 00:50:44;;;;;;;24.60;16.00;;;19.30;99.90;;;;;;5054570;28;20187;-58
2022/06/23 00:53:13;;;;;;;24.33;15.95;;;19.30;99.90;;;;;;5054693;28;20243;-58
2022/06/23 00:55:56;;;;;;;23.25;16.45;;;19.30;99.90;;;;;;5054596;28;20206;-58
2022/06/23 00:58:30;;;;;;;23.00;16.73;;;19.20;99.90;;;;;;5054500;28;20268;-58
2022/06/23 01:01:13;;;;;;;23.33;15.43;;;19.20;99.90;;;;;;5054762;28;20179;-58
2022/06/23 01:03:50;;;;;;;15.88;13.50;;;19.20;99.90;;;;;;5054667;28;20185;-58
2022/06/23 01:06:44;;;;;;;18.17;13.25;;;19.10;99.90;;;;;;5054308;28;21728;-58
2022/06/23 01:09:36;;;;;;;21.40;13.57;;;19.10;99.90;;;;;;5054276;28;20672;-58
2022/06/23 01:12:11;;;;;;;16.25;10.93;;;19.10;99.90;;;;;;5054409;28;20211;-58
2022/06/23 01:14:54;;;;;;;18.80;12.27;;;19.00;99.90;;;;;;5054507;28;20177;-58
2022/06/23 01:17:31;;;;;;;17.52;12.38;;;19.00;99.90;;;;;;5053953;28;20209;-58
2022/06/23 01:20:10;;;;;;;16.52;12.10;;;19.00;99.90;;;;;;5053794;28;20229;-58
2022/06/23 01:22:50;;;;;;;20.20;12.65;;;19.00;99.90;;;;;;5054263;28;20243;-58
2022/06/23 01:25:59;;;;;;;18.98;12.75;;;19.00;99.90;;;;;;5054038;28;20169;-58
2022/06/23 01:28:35;;;;;;;19.67;13.30;;;19.00;99.90;;;;;;5040995;28;20220;-58
2022/06/23 01:31:12;;;;;;;16.50;12.50;;;19.00;99.90;;;;;;5054250;28;20169;-58
2022/06/23 01:33:50;;;;;;;21.73;12.48;;;18.90;99.90;;;;;;5053866;28;20205;-58
2022/06/23 01:39:59;;;;;;;14.98;11.65;;;18.90;99.90;;;;;;4982844;28;20592;-60
2022/06/23 01:42:38;;;;;;;17.95;11.52;;;18.80;99.90;;;;;;5032759;28;20299;-60
2022/06/23 01:45:26;;;;;;;15.40;11.30;;;18.80;99.90;;;;;;5033443;28;20178;-60
2022/06/23 01:48:04;;;;;;;15.07;11.57;;;18.80;99.90;;;;;;5031530;28;20178;-60
2022/06/23 01:50:50;;;;;;;14.80;11.68;;;18.70;99.90;;;;;;5013725;28;20185;-60
2022/06/23 01:53:29;;;;;;;15.50;10.65;;;18.70;99.90;;;;;;5031610;28;20174;-60
2022/06/23 01:56:14;;;;;;;15.77;10.38;;;18.70;99.90;;;;;;5032872;28;20214;-60
2022/06/23 01:58:47;;;;;;;14.23;9.55;;;18.70;99.90;;;;;;5033227;28;20240;-61
2022/06/23 02:01:23;;;;;;;12.30;9.30;;;18.70;99.90;;;;;;5033411;28;20194;-60
2022/06/23 02:03:56;;;;;;;15.40;10.10;;;18.70;99.90;;;;;;5033091;28;20177;-60
2022/06/23 02:06:41;;;;;;;15.00;10.50;;;18.60;99.90;;;;;;5033390;28;20206;-60
2022/06/23 02:09:33;;;;;;;15.73;10.93;;;18.60;99.90;;;;;;5032909;28;20204;-61
2022/06/23 02:11:58;;;;;;;19.08;11.05;;;18.60;99.90;;;;;;5032793;28;20174;-60
2022/06/23 02:14:56;;;;;;;13.18;10.35;;;18.50;99.90;;;;;;5032868;28;20228;-60
2022/06/23 02:17:47;;;;;;;12.55;8.57;;;18.50;99.90;;;;;;4987959;28;20237;-60
2022/06/23 02:20:22;;;;;;;11.65;8.43;;;18.40;99.90;;;;;;5030943;28;20186;-60
2022/06/23 02:22:56;;;;;;;14.77;9.18;;;18.40;99.90;;;;;;5032600;28;20240;-60
2022/06/23 02:25:28;;;;;;;12.45;9.63;;;18.30;99.90;;;;;;5032450;28;20608;-60
2022/06/23 02:27:59;;;;;;;14.48;9.95;;;18.30;99.90;;;;;;5030997;28;20707;-60
2022/06/23 02:30:47;;;;;;;14.38;9.73;;;18.20;99.90;;;;;;5032957;28;20189;-60
2022/06/23 02:33:35;;;;;;;13.68;9.80;;;18.20;99.90;;;;;;5032740;28;20706;-60
2022/06/23 02:36:06;;;;;;;14.95;10.40;;;18.20;99.90;;;;;;5032633;28;20276;-60
2022/06/23 02:38:46;;;;;;;12.05;9.55;;;18.20;99.90;;;;;;5032268;28;20323;-60
2022/06/23 02:41:29;;;;;;;15.20;10.30;;;18.20;99.90;;;;;;5032439;28;20200;-60
2022/06/23 02:44:16;;;;;;;11.50;8.82;;;18.10;99.90;;;;;;5032509;28;20272;-60
2022/06/23 02:47:11;;;;;;;12.80;9.55;;;18.10;99.90;;;;;;5032129;28;20178;-60
2022/06/23 02:49:52;;;;;;;13.23;9.05;;;18.10;99.90;;;;;;5032347;28;20208;-60
2022/06/23 02:52:30;;;;;;;12.75;9.90;;;18.10;99.90;;;;;;5016599;28;20265;-60
2022/06/23 02:55:36;;;;;;;15.07;8.65;;;18.10;99.90;;;;;;5031600;28;20186;-60
2022/06/23 02:58:10;;;;;;;14.38;10.20;;;18.00;99.90;;;;;;5031988;28;20595;-60
2022/06/23 03:00:46;;;;;;;17.02;9.43;;;18.00;99.90;;;;;;5031962;28;20647;-60
2022/06/23 03:03:24;;;;;;;14.05;10.10;;;17.90;99.90;;;;;;5032182;28;20201;-60
2022/06/23 03:05:57;;;;;;;19.55;12.15;;;17.90;99.90;;;;;;5031861;28;20257;-60
2022/06/23 03:08:35;;;;;;;38.42;20.20;;;17.90;99.90;;;;;;5031940;28;20265;-60
2022/06/23 03:11:06;;;;;;;40.13;20.08;;;17.80;99.90;;;;;;5031984;28;20189;-60
2022/06/23 03:13:57;;;;;;;49.63;23.75;;;17.70;99.90;;;;;;5031476;28;20312;-60
2022/06/23 03:16:31;;;;;;;45.85;24.05;;;17.70;99.90;;;;;;5017654;28;20630;-60
2022/06/23 03:19:02;;;;;;;39.20;22.23;;;17.70;99.90;;;;;;5031655;28;20648;-60
2022/06/23 03:21:42;;;;;;;41.17;21.98;;;17.70;99.90;;;;;;5031659;28;20565;-61
2022/06/23 03:24:29;;;;;;;36.65;20.70;;;17.70;99.90;;;;;;5031822;28;20217;-61
2022/06/23 03:27:05;;;;;;;33.47;19.65;;;17.70;99.90;;;;;;5031497;28;20197;-60
2022/06/23 03:30:17;;;;;;;32.25;19.65;;;17.70;99.90;;;;;;5031516;28;20566;-61
2022/06/23 03:32:50;;;;;;;33.08;18.52;;;17.70;99.90;;;;;;5024266;28;20198;-60
2022/06/23 03:35:41;;;;;;;33.97;18.70;;;17.70;99.90;;;;;;5031926;28;20636;-60
2022/06/23 03:38:22;;;;;;;23.33;15.05;;;17.70;99.90;;;;;;5031205;28;20264;-61
2022/06/23 03:43:49;;;;;;;16.05;12.07;;;17.80;99.90;;;;;;5031490;28;20185;-61
2022/06/23 03:46:31;;;;;;;16.90;11.90;;;17.80;99.90;;;;;;5031409;28;20188;-61
2022/06/23 03:49:27;;;;;;;15.82;10.55;;;17.90;99.90;;;;;;5021506;28;20183;-64
2022/06/23 03:51:57;;;;;;;14.38;9.45;;;18.00;99.90;;;;;;5023828;28;20188;-62
2022/06/23 03:54:29;;;;;;;12.02;9.13;;;18.10;99.90;;;;;;5015459;28;20541;-63
2022/06/23 03:57:12;;;;;;;11.77;8.68;;;18.20;99.90;;;;;;5011897;28;20210;-64
2022/06/23 03:59:55;;;;;;;11.65;9.23;;;18.30;99.90;;;;;;5026270;28;20182;-63
2022/06/23 04:02:28;;;;;;;13.68;10.10;;;18.40;99.90;;;;;;5011898;28;20539;-63
2022/06/23 04:05:20;;;;;;;11.82;10.50;;;18.50;99.90;;;;;;5027882;28;20178;-64
2022/06/23 04:08:00;;;;;;;11.80;10.57;;;18.70;99.90;;;;;;5031651;28;20641;-63
2022/06/23 04:10:39;;;;;;;11.07;9.75;;;18.80;99.90;;;;;;5035419;28;20624;-63
2022/06/23 04:13:33;;;;;;;11.50;9.90;;;18.90;99.90;;;;;;5035499;28;20186;-64
2022/06/23 04:16:08;;;;;;;9.90;8.93;;;19.00;99.90;;;;;;5047940;28;20300;-64
2022/06/23 04:18:38;;;;;;;9.65;8.27;;;19.10;99.90;;;;;;5035114;28;20253;-63
2022/06/23 04:21:10;;;;;;;9.57;7.85;;;19.10;99.90;;;;;;5035348;28;20186;-65
2022/06/23 04:23:41;;;;;;;8.55;7.65;;;19.10;99.90;;;;;;5050548;28;20542;-65
2022/06/23 04:26:18;;;;;;;8.68;7.75;;;19.20;99.90;;;;;;5035598;28;20197;-63
2022/06/23 04:28:48;;;;;;;8.82;7.13;;;19.30;99.90;;;;;;5035150;28;20173;-63
2022/06/23 04:31:40;;;;;;;8.32;7.32;;;19.50;99.90;;;;;;5035025;28;20182;-63
2022/06/23 04:34:06;;;;;;;7.43;6.43;;;19.70;99.90;;;;;;5025886;28;20186;-63
2022/06/23 04:36:34;;;;;;;6.75;6.13;;;20.10;99.90;;;;;;5034645;28;20758;-58
2022/06/23 04:39:07;;;;;;;7.38;5.93;;;20.50;99.90;;;;;;5034112;28;20348;-61
2022/06/23 04:41:42;;;;;;;6.80;6.07;;;20.80;99.90;;;;;;5034810;28;20189;-61
2022/06/23 04:44:35;;;;;;;7.50;6.65;;;21.20;99.90;;;;;;5034836;28;20182;-61
2022/06/23 04:47:23;;;;;;;8.05;5.80;;;21.60;99.90;;;;;;5034425;28;20198;-61
2022/06/23 04:49:50;;;;;;;7.43;5.88;;;21.50;99.90;;;;;;5035013;28;20181;-61
2022/06/23 04:52:32;;;;;;;6.85;5.57;;;21.40;99.90;;;;;;5034835;28;20235;-60
2022/06/23 04:55:19;;;;;;;7.28;6.57;;;21.50;99.90;;;;;;5034866;28;20166;-60
2022/06/23 04:57:54;;;;;;;7.18;6.55;;;22.00;99.90;;;;;;5034479;28;20182;-60
2022/06/23 05:00:24;;;;;;;8.27;7.45;;;22.50;99.90;;;;;;5034674;28;20185;-60
2022/06/23 05:02:58;;;;;;;7.53;6.78;;;23.10;99.90;;;;;;5034680;28;20503;-60
2022/06/23 05:05:29;;;;;;;7.22;6.45;;;23.50;99.90;;;;;;5034524;28;20194;-60
2022/06/23 05:08:03;;;;;;;5.90;5.32;;;23.90;99.90;;;;;;5034636;28;20178;-61
2022/06/23 05:10:43;;;;;;;5.55;4.90;;;24.30;99.90;;;;;;5034508;28;20170;-60
2022/06/23 05:13:35;;;;;;;6.25;4.93;;;24.70;99.90;;;;;;5034575;28;20181;-60
2022/06/23 05:16:05;;;;;;;7.70;4.40;;;25.10;99.90;;;;;;5033868;28;20347;-60
2022/06/23 05:18:34;;;;;;;7.75;4.93;;;25.30;99.90;;;;;;5034297;28;20182;-60
2022/06/23 05:21:04;;;;;;;5.70;3.75;;;25.50;99.90;;;;;;5034438;28;20273;-61
2022/06/23 05:23:38;;;;;;;7.03;4.65;;;25.70;99.90;;;;;;5034203;28;20178;-61
2022/06/23 05:26:15;;;;;;;10.10;4.88;;;26.00;99.90;;;;;;5034225;28;20190;-61
2022/06/23 05:28:43;;;;;;;6.78;4.53;;;26.40;99.90;;;;;;5034283;28;20178;-62
2022/06/23 05:31:17;;;;;;;8.77;4.97;;;26.80;99.90;;;;;;5034216;28;20182;-62
2022/06/23 05:33:46;;;;;;;5.57;5.05;;;27.10;99.90;;;;;;5034131;28;20257;-62
2022/06/23 05:36:24;;;;;;;7.85;4.60;;;27.50;99.90;;;;;;5033840;28;20680;-62
2022/06/23 05:38:57;;;;;;;7.45;4.82;;;27.90;99.80;;;;;;5033919;28;20226;-62
2022/06/23 05:41:25;;;;;;;5.38;4.25;;;28.20;99.30;;;;;;5033970;28;20205;-62
2022/06/23 05:43:54;;;;;;;7.72;4.78;;;28.50;98.50;;;;;;5033853;28;20170;-62
2022/06/23 05:46:23;;;;;;;9.23;5.55;;;28.80;98.20;;;;;;5033957;28;20194;-63
2022/06/23 05:49:18;;;;;;;7.13;3.83;;;29.10;97.40;;;;;;5033716;28;20178;-63
2022/06/23 05:52:03;;;;;;;4.88;4.32;;;29.50;96.70;;;;;;5026538;28;20626;-62
2022/06/23 05:54:49;;;;;;;7.38;4.30;;;29.90;95.70;;;;;;5033601;28;20198;-62
2022/06/23 05:57:25;;;;;;;3.90;3.60;;;30.30;94.80;;;;;;5033643;28;20293;-62
2022/06/23 06:00:09;;;;;;;8.13;3.70;;;30.60;93.80;;;;;;5033545;28;20181;-62
2022/06/23 06:02:42;;;;;;;5.72;3.70;;;30.80;93.00;;;;;;5033493;28;20181;-62
2022/06/23 06:05:22;;;;;;;4.95;4.15;;;31.10;92.40;;;;;;5033345;28;20229;-62
2022/06/23 06:07:47;;;;;;;10.52;4.30;;;31.40;91.90;;;;;;5033308;28;20539;-62
2022/06/23 06:10:18;;;;;;;7.55;4.22;;;31.80;91.50;;;;;;5033448;28;20182;-62
2022/06/23 06:12:44;;;;;;;4.43;3.55;;;32.10;90.80;;;;;;5033188;28;20671;-62
2022/06/23 06:15:21;;;;;;;7.38;3.45;;;32.40;89.70;;;;;;5033407;28;20174;-62
2022/06/23 06:17:49;;;;;;;8.27;3.65;;;32.70;88.00;;;;;;5033135;28;20193;-62
2022/06/23 06:20:15;;;;;;;6.07;3.63;;;33.20;86.10;;;;;;5033307;28;20182;-62
2022/06/23 06:23:02;;;;;;;3.90;3.40;;;33.50;82.90;;;;;;5033061;28;20691;-62
2022/06/23 06:25:31;;;;;;;7.03;4.25;;;33.60;81.40;;;;;;5032973;28;20180;-62
2022/06/23 06:28:07;;;;;;;6.95;5.05;;;33.30;81.40;;;;;;5033160;28;20176;-62
2022/06/23 06:30:38;;;;;;;6.93;5.68;;;32.70;82.20;;;;;;5033044;28;20173;-62
2022/06/23 06:33:04;;;;;;;7.80;5.05;;;32.10;84.40;;;;;;5032888;28;20189;-62
2022/06/23 06:35:38;;;;;;;8.95;5.13;;;32.00;85.80;;;;;;5032766;28;20177;-62
2022/06/23 06:38:12;;;;;;;6.60;5.68;;;32.30;85.20;;;;;;5032594;28;20225;-62
2022/06/23 06:40:39;;;;;;;8.95;6.45;;;32.60;84.50;;;;;;5032769;28;20537;-62
2022/06/23 06:43:09;;;;;;;9.73;5.43;;;33.10;82.80;;;;;;5032638;28;20182;-62
2022/06/23 06:45:37;;;;;;;10.20;5.85;;;33.50;80.90;;;;;;5032711;28;20188;-62
2022/06/23 06:48:09;;;;;;;10.55;5.45;;;33.80;80.40;;;;;;5032635;28;20177;-62
2022/06/23 06:50:44;;;;;;;9.88;5.80;;;33.90;79.30;;;;;;5032651;28;20204;-62
2022/06/23 06:53:23;;;;;;;6.68;5.70;;;34.00;78.50;;;;;;5032674;28;20185;-62
2022/06/23 06:56:18;;;;;;;8.55;4.97;;;34.20;78.00;;;;;;5032435;28;20613;-62
2022/06/23 06:58:58;;;;;;;8.30;4.65;;;34.30;76.90;;;;;;5031802;28;20202;-62
2022/06/23 07:01:25;;;;;;;7.00;5.38;;;34.60;76.20;;;;;;5032341;28;20173;-62
2022/06/23 07:03:54;;;;;;;8.77;4.78;;;34.80;74.30;;;;;;5032364;28;20564;-62
2022/06/23 07:06:47;;;;;;;8.20;4.75;;;34.80;74.70;;;;;;5032327;28;20170;-62
2022/06/23 07:09:39;;;;;;;9.52;5.30;;;34.90;73.80;;;;;;5032293;28;20189;-62
2022/06/23 07:12:23;;;;;;;10.02;4.70;;;35.00;73.40;;;;;;5032193;28;20273;-62
2022/06/23 07:15:19;;;;;;;6.40;3.95;;;35.00;71.50;;;;;;5032344;28;20185;-62
2022/06/23 07:17:51;;;;;;;5.13;4.13;;;35.10;71.80;;;;;;5032041;28;20280;-62
2022/06/23 07:20:22;;;;;;;5.97;4.47;;;35.20;70.70;;;;;;5032273;28;20185;-62
2022/06/23 07:23:03;;;;;;;8.18;5.10;;;35.40;71.00;;;;;;5032229;28;20189;-62
2022/06/23 07:25:37;;;;;;;5.70;4.80;;;35.50;69.70;;;;;;5032126;28;20223;-62
2022/06/23 07:28:13;;;;;;;11.65;4.72;;;35.60;70.70;;;;;;5032067;28;20695;-62
2022/06/23 07:30:44;;;;;;;7.78;4.22;;;35.70;68.60;;;;;;5031892;28;20177;-62
2022/06/23 07:33:21;;;;;;;10.30;3.88;;;35.80;69.40;;;;;;5032125;28;20214;-62
2022/06/23 07:35:57;;;;;;;8.93;3.58;;;35.90;68.40;;;;;;5031903;28;20694;-62
2022/06/23 07:38:51;;;;;;;10.70;3.28;;;36.00;66.60;;;;;;5031909;28;20769;-62
2022/06/23 07:41:47;;;;;;;8.20;3.88;;;35.50;65.70;;;;;;5025729;28;20264;-62
2022/06/23 07:44:27;;;;;;;5.50;2.80;;;34.60;68.70;;;;;;5005366;28;20655;-62
2022/06/23 07:46:54;;;;;;;5.90;3.30;;;34.70;68.30;;;;;;5031927;28;20205;-62
2022/06/23 07:49:20;;;;;;;6.82;2.78;;;35.10;66.10;;;;;;5031906;28;20173;-62
2022/06/23 07:51:46;;;;;;;7.97;3.10;;;35.50;65.50;;;;;;5031688;28;20173;-62
2022/06/23 07:54:19;;;;;;;6.20;3.08;;;35.50;64.90;;;;;;5031874;28;20173;-62
2022/06/23 07:56:45;;;;;;;6.18;2.90;;;35.60;65.00;;;;;;5031642;28;20696;-62
2022/06/23 07:59:14;;;;;;;6.05;2.97;;;35.70;63.70;;;;;;5014134;28;20545;-62
2022/06/23 08:01:44;;;;;;;4.20;2.67;;;35.90;63.50;;;;;;5031617;28;20239;-62
2022/06/23 08:04:16;;;;;;;4.63;2.40;;;36.10;64.50;;;;;;5031717;28;20213;-62
2022/06/23 08:06:43;;;;;;;5.53;2.70;;;36.30;60.90;;;;;;5031694;28;20181;-62
2022/06/23 08:09:31;;;;;;;6.93;2.25;;;36.40;61.90;;;;;;5014251;28;20216;-63
2022/06/23 08:17:49;;;;;;;6.05;2.88;;;36.30;59.10;;;;;;5031541;28;20216;-62
2022/06/23 08:20:19;;;;;;;8.18;2.40;;;36.40;59.70;;;;;;5031655;28;20632;-62
2022/06/23 08:22:46;;;;;;;4.25;2.42;;;36.50;58.40;;;;;;5031528;28;20213;-63
2022/06/23 08:25:14;;;;;;;5.13;2.30;;;36.50;57.80;;;;;;5031572;28;20637;-62
2022/06/23 08:27:43;;;;;;;7.68;2.22;;;36.60;57.60;;;;;;5031474;28;20256;-62
2022/06/23 08:30:12;;;;;;;6.10;2.78;;;36.20;57.80;;;;;;5031664;28;20209;-62
2022/06/23 08:32:40;;;;;;;5.93;2.60;;;36.10;58.50;;;;;;5031346;28;20193;-62
2022/06/23 08:35:17;;;;;;;6.05;2.47;;;36.10;59.80;;;;;;5031381;28;20553;-62
2022/06/23 08:38:12;;;;;;;4.38;2.45;;;36.20;59.40;;;;;;5031128;28;20652;-63
2022/06/23 08:40:49;;;;;;;4.93;2.40;;;36.40;58.40;;;;;;5031498;28;20277;-62
2022/06/23 08:43:15;;;;;;;6.65;3.53;;;36.50;58.80;;;;;;5031500;28;20205;-62
2022/06/23 08:46:05;;;;;;;5.00;2.38;;;36.40;57.80;;;;;;5031248;28;20189;-62
2022/06/23 08:48:37;;;;;;;4.38;2.28;;;36.20;59.10;;;;;;5031229;28;20192;-62
2022/06/23 08:51:20;;;;;;;5.60;2.58;;;36.10;59.00;;;;;;5031441;28;20233;-62
2022/06/23 08:54:00;;;;;;;5.93;2.53;;;35.60;57.30;;;;;;5034735;28;20213;-62
2022/06/23 08:56:38;;;;;;;6.65;2.75;;;35.30;59.40;;;;;;5034659;28;20248;-63
2022/06/23 08:59:21;;;;;;;5.18;2.10;;;35.40;59.30;;;;;;5034763;28;20185;-62
2022/06/23 09:02:16;;;;;;;5.78;2.20;;;35.60;58.70;;;;;;5034560;28;20521;-62
2022/06/23 09:04:45;;;;;;;5.45;2.58;;;35.70;58.10;;;;;;5004013;28;20182;-62
2022/06/23 09:07:28;;;;;;;5.55;2.67;;;35.40;58.10;;;;;;5034686;28;20185;-62
2022/06/23 09:10:08;;;;;;;7.82;3.63;;;35.50;59.40;;;;;;5034509;28;20174;-63
2022/06/23 09:12:54;;;;;;;6.22;2.50;;;35.60;58.50;;;;;;5034476;28;20586;-61
2022/06/23 09:15:49;;;;;;;4.30;2.30;;;35.60;58.30;;;;;;5034513;28;20193;-62
2022/06/23 09:18:32;;;;;;;7.43;2.42;;;35.40;58.70;;;;;;5026210;28;20217;-62
2022/06/23 09:21:26;;;;;;;8.52;2.40;;;35.20;59.70;;;;;;5034505;28;20188;-62
2022/06/23 09:23:59;;;;;;;9.60;2.70;;;35.00;60.00;;;;;;5034316;28;20169;-63
2022/06/23 09:26:45;;;;;;;11.50;2.63;;;34.50;59.10;;;;;;5034161;28;20182;-62
2022/06/23 09:29:14;;;;;;;5.25;2.53;;;34.60;60.60;;;;;;5034318;28;20177;-62
2022/06/23 09:31:56;;;;;;;6.47;2.47;;;34.90;58.70;;;;;;5034158;28;20173;-62
2022/06/23 09:34:53;;;;;;;7.38;2.55;;;34.80;59.80;;;;;;5034132;28;20181;-62
2022/06/23 09:37:46;;;;;;;5.35;2.22;;;34.70;59.90;;;;;;5033800;28;20210;-62
2022/06/23 09:40:18;;;;;;;3.15;2.20;;;34.50;60.90;;;;;;5034018;28;20178;-62
2022/06/23 09:43:02;;;;;;;4.50;2.38;;;33.90;60.90;;;;;;5033865;28;20182;-62
2022/06/23 09:45:30;;;;;;;7.15;1.90;;;33.00;61.30;;;;;;5033754;28;20174;-62
2022/06/23 09:48:19;;;;;;;6.25;2.40;;;32.50;63.20;;;;;;5033900;28;20170;-62
2022/06/23 09:50:51;;;;;;;7.45;2.67;;;32.00;63.40;;;;;;5033747;28;20216;-62
2022/06/23 09:53:46;;;;;;;6.78;2.30;;;31.80;67.90;;;;;;5033874;28;20178;-62
2022/06/23 09:56:50;;;;;;;5.03;2.30;;;32.00;65.80;;;;;;5020219;28;20229;-62
2022/06/23 09:59:31;;;;;;;8.38;2.83;;;32.70;65.30;;;;;;5015898;28;20185;-62
2022/06/23 10:02:22;;;;;;;7.80;2.42;;;33.40;63.70;;;;;;5033583;28;20181;-62
2022/06/23 10:05:09;;;;;;;7.10;2.70;;;33.60;63.40;;;;;;5033442;28;20178;-62
2022/06/23 10:08:04;;;;;;;6.40;2.17;;;33.50;63.30;;;;;;5033605;28;20231;-62
2022/06/23 10:10:53;;;;;;;6.65;2.42;;;33.50;62.40;;;;;;5033434;28;20325;-62
2022/06/23 10:13:31;;;;;;;6.13;2.30;;;33.60;62.60;;;;;;5033418;28;20197;-62
2022/06/23 10:16:22;;;;;;;5.47;2.35;;;33.70;60.90;;;;;;5033342;28;20276;-63
2022/06/23 10:19:23;;;;;;;11.30;2.90;;;34.10;62.20;;;;;;5033355;28;20261;-62
2022/06/23 10:22:24;;;;;;;6.72;2.63;;;34.10;59.50;;;;;;5016130;28;20182;-62
2022/06/23 10:25:04;;;;;;;6.38;2.42;;;34.40;60.20;;;;;;5024789;28;20193;-62
2022/06/23 10:27:42;;;;;;;6.88;2.50;;;34.40;60.60;;;;;;5033064;28;20182;-62
2022/06/23 10:30:26;;;;;;;10.00;2.80;;;34.60;60.50;;;;;;5033058;28;20651;-62
2022/06/23 10:33:19;;;;;;;6.68;3.00;;;34.70;61.50;;;;;;5033051;28;20185;-62
2022/06/23 10:35:51;;;;;;;7.10;2.75;;;34.90;60.00;;;;;;5032642;28;20668;-63
2022/06/23 10:38:19;;;;;;;11.45;2.90;;;35.20;59.80;;;;;;5032720;28;20240;-63
2022/06/23 10:40:56;;;;;;;6.80;2.25;;;35.10;58.70;;;;;;5032602;28;20204;-62
2022/06/23 10:44:03;;;;;;;5.22;2.63;;;35.00;58.30;;;;;;5032745;28;20209;-62
2022/06/23 10:46:31;;;;;;;6.22;2.28;;;34.70;58.80;;;;;;5032791;28;20185;-61
2022/06/23 10:48:57;;;;;;;4.20;1.98;;;34.50;59.50;;;;;;5032800;28;20178;-61
2022/06/23 10:51:22;;;;;;;7.40;2.67;;;34.20;58.60;;;;;;5032605;28;20188;-61
2022/06/23 10:54:14;;;;;;;4.53;2.20;;;34.20;59.10;;;;;;5032532;28;20243;-61
2022/06/23 10:56:48;;;;;;;10.10;2.60;;;34.20;60.00;;;;;;5032491;28;20224;-61
2022/06/23 10:59:32;;;;;;;6.90;2.15;;;34.20;59.60;;;;;;5032525;28;20644;-62
2022/06/23 11:02:38;;;;;;;8.25;2.90;;;34.50;59.50;;;;;;5032549;28;20177;-61
2022/06/23 11:05:41;;;;;;;9.65;2.60;;;34.80;60.20;;;;;;4978443;28;20200;-62
2022/06/23 11:08:24;;;;;;;10.98;2.28;;;34.80;57.10;;;;;;5032217;28;20713;-61
2022/06/23 11:11:26;;;;;;;4.88;2.08;;;35.00;57.00;;;;;;5032412;28;20182;-62
2022/06/23 11:14:24;;;;;;;7.95;2.35;;;34.90;57.40;;;;;;5031970;28;20173;-61
2022/06/23 11:17:18;;;;;;;8.15;2.53;;;34.80;57.50;;;;;;5032172;28;20224;-62
2022/06/23 11:19:50;;;;;;;7.07;2.35;;;34.80;57.10;;;;;;5031992;28;20683;-62
2022/06/23 11:22:24;;;;;;;6.90;1.90;;;34.70;57.20;;;;;;5032234;28;20272;-61
2022/06/23 11:25:11;;;;;;;6.15;2.08;;;34.70;56.80;;;;;;5032060;28;20177;-62
2022/06/23 11:28:18;;;;;;;4.22;2.10;;;34.60;56.40;;;;;;5031972;28;20181;-62
2022/06/23 11:31:21;;;;;;;6.43;2.15;;;34.40;56.80;;;;;;4983233;28;20185;-62
2022/06/23 11:34:12;;;;;;;8.63;2.28;;;34.60;57.10;;;;;;5031956;28;20170;-62
2022/06/23 11:36:53;;;;;;;4.43;1.70;;;34.90;56.40;;;;;;5031939;28;20205;-62
2022/06/23 11:39:47;;;;;;;7.03;2.00;;;34.80;55.30;;;;;;5031834;28;20225;-62
2022/06/23 11:42:26;;;;;;;6.93;2.33;;;34.50;55.50;;;;;;5031985;28;20177;-61
2022/06/23 11:45:13;;;;;;;4.32;2.35;;;33.90;56.80;;;;;;5032052;28;20261;-61
2022/06/23 11:47:48;;;;;;;5.65;2.42;;;33.90;57.60;;;;;;5031883;28;20182;-62
2022/06/23 11:50:40;;;;;;;6.60;2.10;;;34.30;58.10;;;;;;5031883;28;20231;-62
2022/06/23 11:53:49;;;;;;;6.88;2.40;;;34.50;56.80;;;;;;5023406;28;20633;-62
2022/06/23 11:56:18;;;;;;;4.05;2.20;;;34.60;56.80;;;;;;5010716;28;20683;-61
2022/06/23 11:59:13;;;;;;;6.32;2.08;;;34.80;56.00;;;;;;5031607;28;20583;-62
2022/06/23 12:01:39;;;;;;;8.27;2.10;;;34.90;55.40;;;;;;5031682;28;20174;-61
2022/06/23 12:04:27;;;;;;;4.88;2.30;;;34.90;55.80;;;;;;5031741;28;20182;-61
2022/06/23 12:07:18;;;;;;;7.07;1.98;;;34.70;55.80;;;;;;5031778;28;20170;-62
2022/06/23 12:09:43;;;;;;;4.55;1.95;;;34.60;55.70;;;;;;5031623;28;20272;-62
2022/06/23 12:12:09;;;;;;;5.47;2.20;;;34.50;55.70;;;;;;5031620;28;20267;-62
2022/06/23 12:14:36;;;;;;;5.65;2.35;;;34.50;55.70;;;;;;5031560;28;20173;-62
2022/06/23 12:17:20;;;;;;;4.93;1.85;;;34.70;55.50;;;;;;5031506;28;20688;-62
2022/06/23 12:19:59;;;;;;;6.70;1.92;;;34.80;54.90;;;;;;5031499;28;20189;-61
2022/06/23 12:22:49;;;;;;;5.60;2.38;;;34.90;55.10;;;;;;5031461;28;20184;-62
2022/06/23 12:25:42;;;;;;;5.60;1.98;;;34.70;54.60;;;;;;5031747;28;20178;-62
2022/06/23 12:28:34;;;;;;;6.35;2.20;;;34.90;55.40;;;;;;5035323;28;20289;-62
2022/06/23 12:31:18;;;;;;;7.85;2.40;;;34.90;55.00;;;;;;5035223;28;20169;-61
2022/06/23 12:34:14;;;;;;;8.77;2.15;;;34.60;54.10;;;;;;5035056;28;20268;-62
2022/06/23 12:36:54;;;;;;;6.10;2.15;;;34.10;54.30;;;;;;5035178;28;20214;-61
2022/06/23 12:39:34;;;;;;;8.82;2.83;;;33.70;56.00;;;;;;5034923;28;20224;-62
2022/06/23 12:42:11;;;;;;;7.95;2.47;;;33.70;55.80;;;;;;5035106;28;20212;-61
2022/06/23 12:44:58;;;;;;;5.65;1.85;;;33.50;55.30;;;;;;5035010;28;20178;-62
2022/06/23 12:47:35;;;;;;;9.23;1.90;;;33.50;54.90;;;;;;5034738;28;20797;-62
2022/06/23 12:50:22;;;;;;;10.98;2.10;;;33.50;53.70;;;;;;5035015;28;20178;-62
2022/06/23 12:52:59;;;;;;;6.47;1.90;;;33.70;55.10;;;;;;5034746;28;20181;-62
2022/06/23 12:55:58;;;;;;;4.53;2.10;;;33.90;56.00;;;;;;5034688;28;20186;-62
2022/06/23 12:58:28;;;;;;;7.85;2.47;;;34.10;56.40;;;;;;5034676;28;20186;-62
2022/06/23 13:01:09;;;;;;;4.93;1.58;;;34.30;54.50;;;;;;5034771;28;20178;-61
2022/06/23 13:03:50;;;;;;;7.43;2.03;;;34.50;54.60;;;;;;5034735;28;20165;-62
2022/06/23 13:06:41;;;;;;;7.32;2.40;;;34.60;53.70;;;;;;5034662;28;20632;-61
2022/06/23 13:09:11;;;;;;;6.05;2.45;;;34.50;53.30;;;;;;5034574;28;20224;-61
2022/06/23 13:12:05;;;;;;;9.23;2.22;;;34.20;54.50;;;;;;5034519;28;20715;-61
2022/06/23 13:14:42;;;;;;;4.78;2.38;;;34.00;54.70;;;;;;5034560;28;20803;-61
2022/06/23 13:17:25;;;;;;;6.43;2.50;;;33.90;55.30;;;;;;5034248;28;20620;-61
2022/06/23 13:20:06;;;;;;;5.65;2.22;;;33.90;55.00;;;;;;5034399;28;20636;-61
2022/06/23 13:22:55;;;;;;;7.63;2.10;;;34.00;56.80;;;;;;5016626;28;20194;-61
2022/06/23 13:25:26;;;;;;;7.57;2.63;;;34.20;56.40;;;;;;5034327;28;20205;-62
2022/06/23 13:27:54;;;;;;;4.45;2.53;;;34.50;55.20;;;;;;5034398;28;20265;-61
2022/06/23 13:30:24;;;;;;;6.75;2.20;;;34.50;54.40;;;;;;5034465;28;20228;-62
2022/06/23 13:33:11;;;;;;;5.10;1.85;;;34.50;54.00;;;;;;5034204;28;20169;-61
2022/06/23 13:35:51;;;;;;;8.32;2.00;;;34.50;55.10;;;;;;5034062;28;20185;-60
2022/06/23 13:38:27;;;;;;;6.22;2.17;;;34.50;54.10;;;;;;5033206;28;20286;-61
2022/06/23 13:41:01;;;;;;;5.25;2.10;;;34.40;54.10;;;;;;5034164;28;20640;-61
2022/06/23 13:43:35;;;;;;;9.32;2.40;;;34.40;53.30;;;;;;5033845;28;20178;-60
2022/06/23 13:46:16;;;;;;;8.30;2.15;;;34.30;52.60;;;;;;5034071;28;20185;-60
2022/06/23 13:48:46;;;;;;;7.03;1.88;;;34.30;52.50;;;;;;5033745;28;20184;-61
2022/06/23 13:51:19;;;;;;;7.05;1.70;;;34.20;52.40;;;;;;5033859;28;20209;-60
2022/06/23 13:53:47;;;;;;;8.20;1.40;;;34.10;51.80;;;;;;5033540;28;20181;-61
2022/06/23 13:56:19;;;;;;;8.10;1.85;;;33.80;50.70;;;;;;5033642;28;20202;-60